Time;durP1;ratioP1;P1;durP2;ratioP2;P2;SDS_P1;SDS_P2;PMS_P1;PMS_P2;Temp;Humidity;BMP_temperature;BMP_pressure;BME280_temperature;BME280_humidity;BME280_pressure;Samples;Min_cycle;Max_cycle;Signal;HPM_P1;HPM_P2
2024/04/25 00:01:49;;;;;;;31.17;20.77;;;;;;;;;;5524290;26;20226;-81
2024/04/25 00:04:18;;;;;;;26.17;18.80;;;;;;;;;;5524122;25;20230;-80
2024/04/25 00:06:47;;;;;;;34.97;23.70;;;;;;;;;;5523696;25;20272;-80
2024/04/25 00:09:16;;;;;;;20.33;11.80;;;;;;;;;;5523156;25;20264;-81
2024/04/25 00:11:45;;;;;;;13.23;9.67;;;;;;;;;;5523921;25;20216;-80
2024/04/25 00:14:14;;;;;;;14.77;11.23;;;;;;;;;;5522701;26;20589;-81
2024/04/25 00:16:45;;;;;;;14.50;10.60;;;;;;;;;;5523073;26;20222;-80
2024/04/25 00:19:14;;;;;;;17.23;9.40;;;;;;;;;;5524053;26;20675;-80
2024/04/25 00:21:43;;;;;;;15.27;9.13;;;;;;;;;;5523231;25;20269;-81
2024/04/25 00:24:11;;;;;;;13.97;8.87;;;;;;;;;;5523455;25;20370;-81
2024/04/25 00:26:40;;;;;;;16.93;13.33;;;;;;;;;;5523898;26;20223;-80
2024/04/25 00:29:09;;;;;;;16.70;9.60;;;;;;;;;;5523292;26;20229;-81
2024/04/25 00:31:38;;;;;;;13.73;9.80;;;;;;;;;;5523591;25;20276;-81
2024/04/25 00:34:07;;;;;;;14.63;9.07;;;;;;;;;;5523352;26;20712;-81
2024/04/25 00:36:36;;;;;;;15.20;8.37;;;;;;;;;;5522694;26;20226;-80
2024/04/25 00:39:05;;;;;;;13.33;7.93;;;;;;;;;;5523014;25;20273;-80
2024/04/25 00:41:34;;;;;;;13.20;8.63;;;;;;;;;;5522701;26;20239;-80
2024/04/25 00:44:03;;;;;;;13.50;8.40;;;;;;;;;;5522154;26;20265;-80
2024/04/25 00:46:32;;;;;;;15.97;9.87;;;;;;;;;;5523428;25;20254;-80
2024/04/25 00:49:01;;;;;;;13.57;8.47;;;;;;;;;;5523147;25;20222;-80
2024/04/25 00:51:33;;;;;;;12.73;9.03;;;;;;;;;;5523019;26;20264;-81
2024/04/25 00:54:02;;;;;;;14.13;9.10;;;;;;;;;;5522036;26;20226;-81
2024/04/25 00:56:31;;;;;;;18.20;9.10;;;;;;;;;;5522780;26;20269;-80
2024/04/25 00:59:01;;;;;;;13.20;9.03;;;;;;;;;;5524381;26;20265;-80
2024/04/25 01:01:30;;;;;;;13.93;8.97;;;;;;;;;;5526749;25;20276;-80
2024/04/25 01:04:01;;;;;;;16.27;9.17;;;;;;;;;;5526080;26;20224;-81
2024/04/25 01:06:32;;;;;;;14.47;9.20;;;;;;;;;;5526667;26;20257;-80
2024/04/25 01:09:03;;;;;;;13.40;9.07;;;;;;;;;;5526077;25;20321;-80
2024/04/25 01:11:33;;;;;;;14.23;9.00;;;;;;;;;;5526039;25;20222;-81
2024/04/25 01:14:02;;;;;;;14.20;9.37;;;;;;;;;;5526147;26;20230;-81
2024/04/25 01:16:31;;;;;;;15.00;8.70;;;;;;;;;;5526640;26;20222;-80
2024/04/25 01:18:59;;;;;;;14.70;8.90;;;;;;;;;;5525759;26;20245;-81
2024/04/25 01:21:28;;;;;;;16.77;8.93;;;;;;;;;;5526281;26;20218;-80
2024/04/25 01:23:58;;;;;;;15.73;8.93;;;;;;;;;;5526232;25;20226;-80
2024/04/25 01:26:30;;;;;;;14.27;9.10;;;;;;;;;;5526335;25;20222;-80
2024/04/25 01:28:59;;;;;;;15.73;8.90;;;;;;;;;;5526683;25;20273;-81
2024/04/25 01:31:28;;;;;;;15.13;9.03;;;;;;;;;;5526709;25;20222;-80
2024/04/25 01:33:57;;;;;;;13.57;8.87;;;;;;;;;;5526160;25;20561;-80
2024/04/25 01:36:26;;;;;;;15.60;9.27;;;;;;;;;;5526277;26;20222;-81
2024/04/25 01:38:55;;;;;;;14.83;9.77;;;;;;;;;;5525608;25;20225;-80
2024/04/25 01:41:23;;;;;;;14.03;9.30;;;;;;;;;;5525578;25;20594;-80
2024/04/25 01:43:55;;;;;;;19.27;10.10;;;;;;;;;;5525666;26;20222;-80
2024/04/25 01:46:24;;;;;;;18.73;9.33;;;;;;;;;;5526430;25;20222;-80
2024/04/25 01:48:54;;;;;;;14.40;10.00;;;;;;;;;;5525760;26;20269;-80
2024/04/25 01:51:23;;;;;;;16.03;9.27;;;;;;;;;;5526076;26;20221;-80
2024/04/25 01:53:52;;;;;;;15.87;9.60;;;;;;;;;;5526356;26;20271;-80
2024/04/25 01:56:21;;;;;;;17.87;10.30;;;;;;;;;;5525287;25;20222;-80
2024/04/25 01:58:52;;;;;;;13.87;9.57;;;;;;;;;;5525697;25;20711;-80
2024/04/25 02:01:24;;;;;;;15.37;9.50;;;;;;;;;;5525595;26;20331;-80
2024/04/25 02:03:53;;;;;;;13.07;9.30;;;;;;;;;;5525650;25;20761;-80
2024/04/25 02:06:21;;;;;;;16.30;9.67;;;;;;;;;;5525863;26;20222;-81
2024/04/25 02:08:51;;;;;;;15.80;9.73;;;;;;;;;;5525571;26;20218;-80
2024/04/25 02:11:19;;;;;;;15.10;9.83;;;;;;;;;;5524822;26;20761;-80
2024/04/25 02:13:48;;;;;;;16.63;9.60;;;;;;;;;;5525735;26;20275;-81
2024/04/25 02:16:17;;;;;;;17.50;9.57;;;;;;;;;;5525006;26;20219;-80
2024/04/25 02:18:49;;;;;;;15.13;9.50;;;;;;;;;;5524730;25;20277;-80
2024/04/25 02:26:48;;;;;;;16.97;9.27;;;;;;;;;;5528648;25;20265;-80
2024/04/25 02:29:17;;;;;;;14.17;8.73;;;;;;;;;;5525261;26;20226;-80
2024/04/25 02:31:45;;;;;;;13.30;9.20;;;;;;;;;;5525252;26;20230;-80
2024/04/25 02:34:17;;;;;;;16.43;9.53;;;;;;;;;;5522880;26;20226;-80
2024/04/25 02:36:46;;;;;;;16.80;9.40;;;;;;;;;;5515425;26;20610;-81
2024/04/25 02:39:12;;;;;;;14.70;9.60;;;;;;;;;;5523953;26;20720;-80
2024/04/25 02:41:41;;;;;;;13.77;9.30;;;;;;;;;;5525161;26;20238;-81
2024/04/25 02:44:07;;;;;;;16.70;9.43;;;;;;;;;;5525167;26;20769;-80
2024/04/25 02:46:36;;;;;;;14.53;9.07;;;;;;;;;;5495007;26;20756;-80
2024/04/25 02:49:02;;;;;;;19.43;9.40;;;;;;;;;;5524935;26;20226;-80
2024/04/25 02:51:34;;;;;;;14.67;8.93;;;;;;;;;;5524805;26;20707;-80
2024/04/25 02:54:00;;;;;;;15.27;8.83;;;;;;;;;;5524585;26;20218;-80
2024/04/25 02:56:29;;;;;;;17.03;8.97;;;;;;;;;;5525460;25;20225;-80
2024/04/25 02:58:55;;;;;;;13.13;9.03;;;;;;;;;;5524975;26;20260;-80
2024/04/25 03:01:24;;;;;;;16.07;8.90;;;;;;;;;;5524352;26;20275;-80
2024/04/25 03:03:50;;;;;;;15.10;9.77;;;;;;;;;;5525042;26;20663;-79
2024/04/25 03:06:19;;;;;;;17.20;8.63;;;;;;;;;;5524969;26;20238;-79
2024/04/25 03:08:48;;;;;;;12.70;8.83;;;;;;;;;;5524671;25;20222;-80
2024/04/25 03:11:17;;;;;;;14.90;9.23;;;;;;;;;;5525515;25;20233;-80
2024/04/25 03:13:44;;;;;;;13.50;8.73;;;;;;;;;;5524711;25;20233;-80
2024/04/25 03:16:13;;;;;;;16.53;9.30;;;;;;;;;;5522376;25;20240;-80
2024/04/25 03:18:39;;;;;;;14.93;9.50;;;;;;;;;;5524878;26;20223;-81
2024/04/25 03:21:08;;;;;;;14.57;9.43;;;;;;;;;;5524393;26;20337;-80
2024/04/25 03:23:35;;;;;;;12.80;8.97;;;;;;;;;;5523068;26;20575;-80
2024/04/25 03:26:07;;;;;;;13.77;9.20;;;;;;;;;;5524585;26;20277;-80
2024/04/25 03:28:34;;;;;;;14.23;9.00;;;;;;;;;;5524050;26;20268;-80
2024/04/25 03:31:02;;;;;;;14.37;9.33;;;;;;;;;;5524247;26;20300;-79
2024/04/25 03:33:29;;;;;;;13.77;8.57;;;;;;;;;;5524386;26;20272;-80
2024/04/25 03:35:57;;;;;;;12.47;9.13;;;;;;;;;;5524644;26;20626;-80
2024/04/25 03:38:26;;;;;;;15.40;10.00;;;;;;;;;;5523804;26;20268;-80
2024/04/25 03:40:56;;;;;;;15.87;10.00;;;;;;;;;;5517215;26;20280;-80
2024/04/25 03:43:27;;;;;;;19.20;9.60;;;;;;;;;;5487348;26;20223;-80
2024/04/25 03:45:57;;;;;;;16.17;9.40;;;;;;;;;;5486930;26;20227;-80
2024/04/25 03:48:25;;;;;;;14.20;8.80;;;;;;;;;;5487296;26;20223;-80
2024/04/25 03:50:54;;;;;;;13.17;8.63;;;;;;;;;;5486962;26;20258;-80
2024/04/25 03:53:23;;;;;;;17.20;9.53;;;;;;;;;;5486736;26;20254;-80
2024/04/25 03:55:52;;;;;;;17.33;9.50;;;;;;;;;;5487544;26;20266;-79
2024/04/25 03:58:21;;;;;;;16.73;9.63;;;;;;;;;;5487226;26;20266;-79
2024/04/25 04:00:52;;;;;;;14.80;9.13;;;;;;;;;;5486844;26;20273;-80
2024/04/25 04:03:21;;;;;;;16.33;8.97;;;;;;;;;;5486815;26;20226;-80
2024/04/25 04:05:50;;;;;;;16.53;9.03;;;;;;;;;;5486591;26;20231;-80
2024/04/25 04:08:19;;;;;;;17.03;9.70;;;;;;;;;;5486804;26;20223;-80
2024/04/25 04:10:48;;;;;;;15.07;9.23;;;;;;;;;;5486650;26;20219;-80
2024/04/25 04:13:17;;;;;;;16.77;9.07;;;;;;;;;;5486964;26;20286;-80
2024/04/25 04:15:46;;;;;;;14.17;9.50;;;;;;;;;;5486809;26;20602;-80
2024/04/25 04:18:18;;;;;;;14.20;8.73;;;;;;;;;;5486274;26;20219;-80
2024/04/25 04:20:48;;;;;;;14.70;8.90;;;;;;;;;;5486107;26;20273;-80
2024/04/25 04:23:17;;;;;;;20.00;9.57;;;;;;;;;;5486663;26;20275;-80
2024/04/25 04:25:46;;;;;;;15.70;9.03;;;;;;;;;;5486084;26;20270;-80
2024/04/25 04:28:15;;;;;;;15.57;9.17;;;;;;;;;;5485626;26;20728;-80
2024/04/25 04:30:44;;;;;;;15.20;8.90;;;;;;;;;;5474929;26;20304;-79
2024/04/25 04:33:13;;;;;;;12.70;8.77;;;;;;;;;;5470958;26;20224;-80
2024/04/25 04:35:44;;;;;;;17.47;9.53;;;;;;;;;;5462198;26;20219;-80
2024/04/25 04:38:13;;;;;;;14.20;8.50;;;;;;;;;;5489545;26;20266;-79
2024/04/25 04:40:42;;;;;;;13.50;8.83;;;;;;;;;;5492782;26;20603;-80
2024/04/25 04:43:11;;;;;;;12.97;8.97;;;;;;;;;;5526478;26;20244;-80
2024/04/25 04:45:40;;;;;;;13.70;8.90;;;;;;;;;;5527001;26;20268;-81
2024/04/25 04:48:10;;;;;;;12.87;8.60;;;;;;;;;;5526750;26;20818;-79
2024/04/25 04:50:38;;;;;;;15.03;8.57;;;;;;;;;;5526499;26;20257;-80
2024/04/25 04:53:10;;;;;;;14.10;9.00;;;;;;;;;;5526398;26;20571;-80
2024/04/25 04:55:40;;;;;;;15.47;9.07;;;;;;;;;;5526779;26;20633;-80
2024/04/25 04:58:09;;;;;;;16.53;9.40;;;;;;;;;;5526499;26;20264;-80
2024/04/25 05:00:38;;;;;;;16.43;8.90;;;;;;;;;;5526553;26;20338;-80
2024/04/25 05:03:10;;;;;;;13.67;8.80;;;;;;;;;;5526768;26;20753;-80
2024/04/25 05:05:39;;;;;;;17.13;9.80;;;;;;;;;;5525895;26;20233;-80
2024/04/25 05:08:10;;;;;;;16.20;9.57;;;;;;;;;;5526051;26;20222;-80
2024/04/25 05:10:39;;;;;;;16.07;9.07;;;;;;;;;;5527238;26;20267;-81
2024/04/25 05:13:09;;;;;;;18.30;9.70;;;;;;;;;;5526453;26;20226;-82
2024/04/25 05:15:38;;;;;;;13.80;9.63;;;;;;;;;;5526446;26;20683;-81
2024/04/25 05:18:07;;;;;;;12.90;9.07;;;;;;;;;;5511162;26;20277;-81
2024/04/25 05:20:36;;;;;;;16.73;9.70;;;;;;;;;;5524662;26;20230;-81
2024/04/25 05:23:05;;;;;;;17.80;8.97;;;;;;;;;;5525767;26;20761;-80
2024/04/25 05:25:36;;;;;;;13.90;9.10;;;;;;;;;;5511382;26;20260;-81
2024/04/25 05:28:05;;;;;;;17.67;9.70;;;;;;;;;;5526106;26;20226;-83
2024/04/25 05:30:34;;;;;;;14.97;9.23;;;;;;;;;;5525677;26;20577;-82
2024/04/25 05:33:04;;;;;;;19.07;9.10;;;;;;;;;;5525531;26;20229;-80
2024/04/25 05:35:34;;;;;;;17.80;8.90;;;;;;;;;;5527009;26;20230;-82
2024/04/25 05:38:02;;;;;;;15.07;8.70;;;;;;;;;;5525755;26;20282;-80
2024/04/25 05:40:31;;;;;;;16.10;8.90;;;;;;;;;;5525412;26;20261;-79
2024/04/25 05:43:03;;;;;;;13.50;8.50;;;;;;;;;;5525896;26;20226;-78
2024/04/25 05:45:33;;;;;;;17.10;9.10;;;;;;;;;;5524906;26;20303;-79
2024/04/25 05:48:02;;;;;;;18.37;9.00;;;;;;;;;;5514236;25;20750;-80
2024/04/25 05:50:30;;;;;;;14.40;8.70;;;;;;;;;;5516119;26;20273;-79
2024/04/25 05:52:59;;;;;;;16.47;8.77;;;;;;;;;;5523075;26;20730;-80
2024/04/25 05:55:28;;;;;;;18.30;8.73;;;;;;;;;;5515091;26;20230;-79
2024/04/25 05:57:57;;;;;;;16.97;9.23;;;;;;;;;;5522679;26;20231;-79
2024/04/25 06:00:28;;;;;;;14.03;8.70;;;;;;;;;;5514809;26;20599;-79
2024/04/25 06:02:57;;;;;;;13.23;8.03;;;;;;;;;;5518880;25;20746;-79
2024/04/25 06:05:26;;;;;;;18.07;8.90;;;;;;;;;;5525522;26;20611;-80
2024/04/25 06:07:55;;;;;;;14.53;8.67;;;;;;;;;;5525504;26;20214;-79
2024/04/25 06:10:24;;;;;;;13.23;7.83;;;;;;;;;;5522267;26;20277;-80
2024/04/25 06:12:52;;;;;;;14.33;7.97;;;;;;;;;;5525247;26;20272;-79
2024/04/25 06:15:21;;;;;;;12.87;8.83;;;;;;;;;;5525289;26;20226;-80
2024/04/25 06:17:53;;;;;;;15.70;8.70;;;;;;;;;;5524962;26;20255;-80
2024/04/25 06:20:22;;;;;;;14.20;8.37;;;;;;;;;;5500601;26;20604;-80
2024/04/25 06:22:50;;;;;;;15.93;8.37;;;;;;;;;;5523933;26;20229;-79
2024/04/25 06:25:19;;;;;;;15.33;8.80;;;;;;;;;;5509818;26;20239;-80
2024/04/25 06:27:48;;;;;;;12.97;8.70;;;;;;;;;;5508910;26;20580;-80
2024/04/25 06:30:17;;;;;;;13.87;8.33;;;;;;;;;;5525593;25;20791;-79
2024/04/25 06:32:46;;;;;;;16.53;8.17;;;;;;;;;;5530923;25;20280;-78
2024/04/25 06:35:18;;;;;;;15.83;8.53;;;;;;;;;;5532949;25;20232;-79
2024/04/25 06:37:46;;;;;;;13.93;7.97;;;;;;;;;;5525063;26;20222;-79
2024/04/25 06:40:15;;;;;;;13.47;8.50;;;;;;;;;;5524927;26;20222;-79
2024/04/25 06:42:44;;;;;;;15.03;8.63;;;;;;;;;;5524974;26;20241;-79
2024/04/25 06:45:13;;;;;;;16.77;8.50;;;;;;;;;;5511756;26;20234;-80
2024/04/25 06:47:43;;;;;;;15.90;8.20;;;;;;;;;;5523947;26;20241;-80
2024/04/25 06:50:12;;;;;;;12.93;8.20;;;;;;;;;;5524257;26;20269;-80
2024/04/25 06:52:43;;;;;;;15.63;8.13;;;;;;;;;;5524274;26;20222;-79
2024/04/25 06:55:12;;;;;;;16.90;10.83;;;;;;;;;;5524318;26;20359;-79
2024/04/25 06:57:41;;;;;;;16.70;10.70;;;;;;;;;;5517167;26;20288;-79
2024/04/25 07:00:10;;;;;;;15.90;10.23;;;;;;;;;;5523720;26;20230;-78
2024/04/25 07:02:40;;;;;;;17.83;9.70;;;;;;;;;;5520294;26;20589;-80
2024/04/25 07:05:09;;;;;;;14.87;8.20;;;;;;;;;;5521918;26;20833;-79
2024/04/25 07:07:38;;;;;;;10.43;6.77;;;;;;;;;;5510110;26;20273;-79
2024/04/25 07:10:10;;;;;;;11.23;7.20;;;;;;;;;;5524222;26;20218;-78
2024/04/25 07:12:39;;;;;;;12.67;6.93;;;;;;;;;;5523956;26;20276;-77
2024/04/25 07:15:09;;;;;;;12.23;7.07;;;;;;;;;;5523883;26;20399;-78
2024/04/25 07:17:38;;;;;;;9.87;6.77;;;;;;;;;;5524209;26;20218;-81
2024/04/25 07:20:07;;;;;;;12.03;6.50;;;;;;;;;;5524233;26;20275;-80
2024/04/25 07:22:36;;;;;;;11.07;6.03;;;;;;;;;;5523219;26;20769;-81
2024/04/25 07:25:08;;;;;;;11.43;6.20;;;;;;;;;;5524446;26;20222;-81
2024/04/25 07:27:39;;;;;;;11.82;6.25;;;;;;;;;;5524052;26;20258;-81
2024/04/25 07:30:09;;;;;;;9.25;5.53;;;;;;;;;;5521929;26;20226;-81
2024/04/25 07:32:38;;;;;;;10.25;5.90;;;;;;;;;;5524243;26;20342;-81
2024/04/25 07:35:07;;;;;;;12.07;6.70;;;;;;;;;;5523791;26;20229;-81
2024/04/25 07:37:37;;;;;;;11.43;6.07;;;;;;;;;;5524132;26;20268;-79
2024/04/25 07:40:07;;;;;;;8.43;5.78;;;;;;;;;;5523588;26;20668;-81
2024/04/25 07:42:36;;;;;;;11.73;6.30;;;;;;;;;;5523830;26;20281;-81
2024/04/25 07:45:08;;;;;;;11.93;5.95;;;;;;;;;;5523416;26;20273;-82
2024/04/25 07:47:37;;;;;;;13.82;6.13;;;;;;;;;;5524618;26;20575;-81
2024/04/25 07:50:03;;;;;;;13.52;6.82;;;;;;;;;;5523481;26;20276;-81
2024/04/25 07:52:32;;;;;;;10.35;6.28;;;;;;;;;;5524253;26;20763;-82
2024/04/25 07:55:01;;;;;;;8.10;6.13;;;;;;;;;;5523935;26;20210;-81
2024/04/25 07:57:30;;;;;;;11.93;6.40;;;;;;;;;;5521833;26;20226;-80
2024/04/25 07:59:59;;;;;;;11.05;6.22;;;;;;;;;;5522189;26;20277;-81
2024/04/25 08:02:32;;;;;;;12.27;6.40;;;;;;;;;;5523704;26;20222;-81
2024/04/25 08:05:01;;;;;;;10.77;6.03;;;;;;;;;;5522896;26;20720;-81
2024/04/25 08:07:31;;;;;;;9.65;6.25;;;;;;;;;;5522179;26;20237;-80
2024/04/25 08:09:59;;;;;;;10.55;6.07;;;;;;;;;;5521495;26;20230;-81
2024/04/25 08:12:30;;;;;;;10.77;6.55;;;;;;;;;;5522599;26;20576;-81
2024/04/25 08:14:59;;;;;;;9.63;5.88;;;;;;;;;;5522242;26;20223;-81
2024/04/25 08:17:32;;;;;;;11.43;6.28;;;;;;;;;;5523360;26;20218;-81
2024/04/25 08:20:01;;;;;;;9.65;5.82;;;;;;;;;;5520595;26;20238;-80
2024/04/25 08:22:30;;;;;;;9.63;5.82;;;;;;;;;;5522425;26;20242;-81
2024/04/25 08:24:59;;;;;;;11.30;6.43;;;;;;;;;;5522901;26;20230;-82
2024/04/25 08:27:28;;;;;;;10.57;7.47;;;;;;;;;;5520456;26;20256;-81
2024/04/25 08:29:57;;;;;;;9.95;5.60;;;;;;;;;;5507032;25;20219;-81
2024/04/25 08:32:26;;;;;;;13.52;8.40;;;;;;;;;;5506850;26;20230;-81
2024/04/25 08:34:57;;;;;;;12.85;7.03;;;;;;;;;;5523805;25;20277;-82
2024/04/25 08:37:26;;;;;;;14.95;8.25;;;;;;;;;;5514927;25;20301;-80
2024/04/25 08:39:55;;;;;;;13.80;5.75;;;;;;;;;;5137814;25;10000228;-80
2024/04/25 08:42:24;;;;;;;10.10;6.25;;;;;;;;;;5523549;25;20242;-81
2024/04/25 08:44:53;;;;;;;13.43;7.53;;;;;;;;;;5526699;25;20631;-82
2024/04/25 08:47:22;;;;;;;9.70;5.85;;;;;;;;;;5517674;25;20238;-81
2024/04/25 08:49:52;;;;;;;12.13;6.40;;;;;;;;;;5521399;25;20327;-82
2024/04/25 08:52:24;;;;;;;10.10;5.80;;;;;;;;;;5523382;25;20767;-81
2024/04/25 08:54:53;;;;;;;12.90;6.95;;;;;;;;;;5516118;26;20235;-82
2024/04/25 08:57:24;;;;;;;9.18;5.38;;;;;;;;;;5533177;25;20276;-82
2024/04/25 08:59:53;;;;;;;8.07;4.90;;;;;;;;;;5525532;25;20362;-82
2024/04/25 09:02:23;;;;;;;11.13;5.35;;;;;;;;;;5525682;25;20585;-81
2024/04/25 09:04:54;;;;;;;7.35;4.78;;;;;;;;;;5526483;25;20370;-82
2024/04/25 09:07:26;;;;;;;9.32;4.60;;;;;;;;;;5543256;25;20329;-81
2024/04/25 09:09:56;;;;;;;7.65;5.45;;;;;;;;;;5510619;26;20247;-81
2024/04/25 09:12:25;;;;;;;9.77;4.65;;;;;;;;;;5511861;25;20273;-82
2024/04/25 09:14:54;;;;;;;12.40;5.35;;;;;;;;;;5517497;25;20268;-82
2024/04/25 09:17:23;;;;;;;10.65;5.57;;;;;;;;;;5518495;26;20273;-83
2024/04/25 09:19:56;;;;;;;11.23;5.55;;;;;;;;;;5484325;26;20269;-82
2024/04/25 09:22:27;;;;;;;10.82;6.53;;;;;;;;;;5503043;26;20273;-82
2024/04/25 09:24:56;;;;;;;11.38;7.18;;;;;;;;;;5525613;26;20260;-83
2024/04/25 09:27:25;;;;;;;7.78;5.93;;;;;;;;;;5524721;26;20230;-83
2024/04/25 09:29:55;;;;;;;9.07;5.63;;;;;;;;;;5525106;26;20279;-83
2024/04/25 09:32:24;;;;;;;7.38;5.22;;;;;;;;;;5523105;26;20227;-84
2024/04/25 09:34:50;;;;;;;9.25;6.18;;;;;;;;;;5515998;26;20289;-83
2024/04/25 09:37:20;;;;;;;8.15;5.97;;;;;;;;;;5524500;26;20238;-83
2024/04/25 09:39:52;;;;;;;10.15;6.00;;;;;;;;;;5524317;26;20702;-83
2024/04/25 09:42:21;;;;;;;9.65;5.57;;;;;;;;;;5524130;26;20234;-83
2024/04/25 09:44:50;;;;;;;10.60;5.88;;;;;;;;;;5498848;26;20268;-83
2024/04/25 09:47:24;;;;;;;9.25;5.28;;;;;;;;;;5524783;26;20234;-84
2024/04/25 09:49:54;;;;;;;9.63;5.82;;;;;;;;;;5523796;26;20226;-84
2024/04/25 09:52:29;;;;;;;9.13;6.15;;;;;;;;;;5525261;26;20230;-84
2024/04/25 09:55:04;;;;;;;9.85;5.10;;;;;;;;;;5542272;25;20284;-84
2024/04/25 09:57:33;;;;;;;10.75;5.95;;;;;;;;;;5551191;25;20283;-82
2024/04/25 10:00:05;;;;;;;9.18;5.30;;;;;;;;;;5527129;25;20242;-84
2024/04/25 10:02:34;;;;;;;9.60;5.50;;;;;;;;;;5499896;26;20273;-84
2024/04/25 10:05:03;;;;;;;10.05;5.18;;;;;;;;;;5517223;25;20588;-83
2024/04/25 10:07:33;;;;;;;9.07;5.50;;;;;;;;;;5512881;26;20242;-84
2024/04/25 10:10:05;;;;;;;8.85;5.18;;;;;;;;;;5538593;25;20241;-84
2024/04/25 10:12:34;;;;;;;9.07;5.35;;;;;;;;;;5538311;25;20238;-82
2024/04/25 10:15:04;;;;;;;10.50;5.90;;;;;;;;;;5537486;25;20237;-84
2024/04/25 10:17:34;;;;;;;9.68;5.72;;;;;;;;;;5524052;25;20644;-84
2024/04/25 10:20:03;;;;;;;7.65;5.47;;;;;;;;;;5552549;25;20294;-85
2024/04/25 10:22:34;;;;;;;11.63;6.18;;;;;;;;;;5550165;25;20242;-84
2024/04/25 10:25:10;;;;;;;9.55;5.80;;;;;;;;;;5517649;26;20226;-84
2024/04/25 10:27:39;;;;;;;9.35;5.53;;;;;;;;;;5520003;25;20238;-83
2024/04/25 10:30:10;;;;;;;9.88;5.60;;;;;;;;;;5500738;25;20461;-84
2024/04/25 10:32:40;;;;;;;9.48;5.03;;;;;;;;;;5552361;25;20237;-84
2024/04/25 10:35:09;;;;;;;8.65;5.13;;;;;;;;;;5553511;25;20234;-84
2024/04/25 10:37:40;;;;;;;6.55;5.43;;;;;;;;;;5559289;25;20241;-84
2024/04/25 10:40:15;;;;;;;10.35;5.57;;;;;;;;;;5562818;25;20229;-84
2024/04/25 10:42:44;;;;;;;9.27;5.47;;;;;;;;;;5562247;25;20236;-83
2024/04/25 10:45:12;;;;;;;7.70;5.40;;;;;;;;;;5539517;25;20238;-85
2024/04/25 10:47:42;;;;;;;9.25;5.75;;;;;;;;;;5553054;25;20245;-83
2024/04/25 10:50:11;;;;;;;8.30;5.45;;;;;;;;;;5561475;25;20698;-83
2024/04/25 10:52:40;;;;;;;10.52;5.85;;;;;;;;;;5562053;25;20221;-83
2024/04/25 10:55:11;;;;;;;8.55;5.22;;;;;;;;;;5562468;25;20263;-84
2024/04/25 10:57:40;;;;;;;8.73;5.65;;;;;;;;;;5560841;25;20274;-83
2024/04/25 11:00:10;;;;;;;7.82;5.22;;;;;;;;;;5556200;25;20291;-83
2024/04/25 11:02:39;;;;;;;10.02;5.68;;;;;;;;;;5562197;25;20701;-84
2024/04/25 11:05:08;;;;;;;7.20;5.18;;;;;;;;;;5561606;25;20272;-84
2024/04/25 11:07:40;;;;;;;7.18;5.07;;;;;;;;;;5557018;25;20225;-84
2024/04/25 11:10:15;;;;;;;11.40;5.30;;;;;;;;;;5517304;25;20238;-84
2024/04/25 11:12:44;;;;;;;9.75;5.38;;;;;;;;;;5530101;25;21151;-85
2024/04/25 11:15:16;;;;;;;9.18;5.65;;;;;;;;;;5540478;25;20746;-84
2024/04/25 11:17:46;;;;;;;10.13;5.50;;;;;;;;;;5548189;25;20275;-84
2024/04/25 11:20:15;;;;;;;9.73;5.78;;;;;;;;;;5535872;25;20292;-84
2024/04/25 11:22:43;;;;;;;7.75;5.32;;;;;;;;;;5507515;26;20227;-84
2024/04/25 11:25:19;;;;;;;7.00;5.40;;;;;;;;;;5523052;26;20276;-84
2024/04/25 11:27:50;;;;;;;10.48;5.63;;;;;;;;;;5502699;25;20221;-84
2024/04/25 11:30:19;;;;;;;7.45;5.10;;;;;;;;;;5511913;26;20758;-82
2024/04/25 11:32:48;;;;;;;10.35;5.97;;;;;;;;;;5521358;26;20269;-81
2024/04/25 11:35:21;;;;;;;12.57;5.95;;;;;;;;;;5500446;26;20231;-83
2024/04/25 11:37:51;;;;;;;9.30;5.43;;;;;;;;;;5487410;26;20262;-83
2024/04/25 11:40:35;;;;;;;9.47;5.43;;;;;;;;;;5486097;26;20219;-83
2024/04/25 11:43:04;;;;;;;9.47;5.60;;;;;;;;;;5508008;25;20284;-83
2024/04/25 11:45:33;;;;;;;8.40;5.00;;;;;;;;;;5532680;25;20234;-83
2024/04/25 11:48:02;;;;;;;11.52;5.47;;;;;;;;;;5552817;25;20222;-82
2024/04/25 11:50:31;;;;;;;8.03;5.20;;;;;;;;;;5522274;26;20284;-83
2024/04/25 11:53:00;;;;;;;9.37;5.57;;;;;;;;;;5524125;25;20229;-83
2024/04/25 11:55:28;;;;;;;8.53;5.63;;;;;;;;;;5532578;25;20590;-83
2024/04/25 11:58:00;;;;;;;9.27;5.55;;;;;;;;;;5512673;25;20287;-81
2024/04/25 12:00:29;;;;;;;9.60;5.20;;;;;;;;;;5544018;25;20269;-83
2024/04/25 12:02:58;;;;;;;7.45;5.25;;;;;;;;;;5523261;26;20222;-82
2024/04/25 12:05:26;;;;;;;11.00;5.35;;;;;;;;;;5523551;26;20222;-83
2024/04/25 12:07:59;;;;;;;8.75;4.90;;;;;;;;;;5522836;26;20698;-82
2024/04/25 12:10:30;;;;;;;7.90;5.30;;;;;;;;;;5522744;26;20787;-83
2024/04/25 12:13:02;;;;;;;7.97;5.32;;;;;;;;;;5522591;26;20222;-82
2024/04/25 12:15:31;;;;;;;6.50;5.00;;;;;;;;;;5518796;26;20230;-83
2024/04/25 12:17:59;;;;;;;8.40;5.43;;;;;;;;;;5523370;26;20276;-82
2024/04/25 12:20:29;;;;;;;8.07;4.97;;;;;;;;;;5516071;26;20277;-81
2024/04/25 12:22:58;;;;;;;8.25;5.03;;;;;;;;;;5501657;26;20269;-82
2024/04/25 12:25:26;;;;;;;8.07;5.10;;;;;;;;;;5506746;26;20230;-82
2024/04/25 12:27:55;;;;;;;8.27;4.55;;;;;;;;;;5522616;26;20223;-83
2024/04/25 12:30:28;;;;;;;11.07;5.32;;;;;;;;;;5522736;26;20222;-82
2024/04/25 12:32:57;;;;;;;9.60;5.43;;;;;;;;;;5522004;25;20222;-82
2024/04/25 12:35:26;;;;;;;9.77;5.20;;;;;;;;;;5517288;26;20273;-81
2024/04/25 12:37:55;;;;;;;9.00;5.15;;;;;;;;;;5522450;26;20272;-82
2024/04/25 12:40:24;;;;;;;9.10;5.40;;;;;;;;;;5522975;26;20762;-82
2024/04/25 12:42:53;;;;;;;8.35;5.38;;;;;;;;;;5522497;26;20238;-82
2024/04/25 12:45:23;;;;;;;7.15;4.70;;;;;;;;;;5522372;26;20757;-82
2024/04/25 12:47:54;;;;;;;7.95;5.60;;;;;;;;;;5522387;26;20218;-82
2024/04/25 12:50:23;;;;;;;7.75;5.47;;;;;;;;;;5522030;26;21087;-83
2024/04/25 12:52:52;;;;;;;10.20;5.30;;;;;;;;;;5522849;25;20273;-83
2024/04/25 12:55:21;;;;;;;6.95;5.03;;;;;;;;;;5524906;26;20757;-82
2024/04/25 12:57:54;;;;;;;9.57;5.53;;;;;;;;;;5526626;26;20218;-83
2024/04/25 13:00:24;;;;;;;11.23;5.32;;;;;;;;;;5504331;26;20287;-83
2024/04/25 13:02:55;;;;;;;8.70;5.18;;;;;;;;;;5488498;26;20336;-85
2024/04/25 13:05:25;;;;;;;10.20;5.63;;;;;;;;;;5489707;26;20224;-85
2024/04/25 13:07:54;;;;;;;9.32;4.78;;;;;;;;;;5525409;26;20229;-82
2024/04/25 13:10:23;;;;;;;8.40;5.40;;;;;;;;;;5525580;26;20230;-84
2024/04/25 13:12:51;;;;;;;7.55;5.35;;;;;;;;;;5526706;26;20226;-85
2024/04/25 13:15:20;;;;;;;7.47;5.10;;;;;;;;;;5526557;26;20231;-85
2024/04/25 13:17:49;;;;;;;6.35;4.68;;;;;;;;;;5525977;26;20218;-83
2024/04/25 13:20:21;;;;;;;8.77;5.10;;;;;;;;;;5525181;26;20270;-84
2024/04/25 13:22:49;;;;;;;7.40;5.65;;;;;;;;;;5526019;25;20273;-85
2024/04/25 13:25:18;;;;;;;9.00;5.60;;;;;;;;;;5525033;26;20577;-82
2024/04/25 13:27:47;;;;;;;8.02;5.43;;;;;;;;;;5525423;26;20218;-84
2024/04/25 13:30:16;;;;;;;7.97;5.38;;;;;;;;;;5525786;26;20276;-84
2024/04/25 13:32:45;;;;;;;7.28;5.25;;;;;;;;;;5525865;26;20222;-83
2024/04/25 13:35:14;;;;;;;6.28;4.63;;;;;;;;;;5505952;26;20273;-83
2024/04/25 13:37:45;;;;;;;10.02;5.47;;;;;;;;;;5526407;26;20265;-84
2024/04/25 13:40:14;;;;;;;8.45;5.82;;;;;;;;;;5525643;26;20230;-83
2024/04/25 13:42:44;;;;;;;15.07;5.95;;;;;;;;;;5524515;25;20276;-84
2024/04/25 13:45:13;;;;;;;8.30;5.18;;;;;;;;;;5524974;26;20230;-84
2024/04/25 13:47:42;;;;;;;7.55;4.47;;;;;;;;;;5524782;26;20234;-85
2024/04/25 13:50:08;;;;;;;9.15;5.45;;;;;;;;;;5520967;26;20222;-84
2024/04/25 13:52:37;;;;;;;9.20;4.97;;;;;;;;;;5524271;26;20230;-83
2024/04/25 13:55:09;;;;;;;9.73;5.32;;;;;;;;;;5507093;26;20222;-84
2024/04/25 13:57:38;;;;;;;7.00;5.32;;;;;;;;;;5524416;26;20265;-83
2024/04/25 14:00:08;;;;;;;8.70;5.38;;;;;;;;;;5523334;26;20345;-83
2024/04/25 14:02:37;;;;;;;8.90;5.68;;;;;;;;;;5525603;26;20223;-82
2024/04/25 14:05:06;;;;;;;7.07;5.05;;;;;;;;;;5525098;26;20259;-84
2024/04/25 14:07:35;;;;;;;6.93;5.82;;;;;;;;;;5524611;26;20265;-84
2024/04/25 14:10:04;;;;;;;10.35;5.80;;;;;;;;;;5524248;26;20276;-83
2024/04/25 14:12:35;;;;;;;10.05;5.30;;;;;;;;;;5517032;26;20273;-84
2024/04/25 14:15:04;;;;;;;7.80;5.50;;;;;;;;;;5516079;26;20239;-83
2024/04/25 14:17:33;;;;;;;10.88;5.63;;;;;;;;;;5514978;25;20234;-83
2024/04/25 14:20:02;;;;;;;6.90;5.50;;;;;;;;;;5524020;25;20230;-84
2024/04/25 14:22:30;;;;;;;8.90;5.45;;;;;;;;;;5517297;25;20272;-83
2024/04/25 14:28:42;;;;;;;8.05;5.45;;;;;;;;;;5522757;25;20332;-85
2024/04/25 14:30:36;;;;;;;7.57;5.25;;;;;;;;;;5538776;25;20321;-86
2024/04/25 14:33:05;;;;;;;9.43;6.18;;;;;;;;;;5534235;25;20224;-84
2024/04/25 14:35:34;;;;;;;11.73;5.78;;;;;;;;;;5523580;25;20239;-83
2024/04/25 14:38:03;;;;;;;10.10;5.90;;;;;;;;;;5536373;25;20242;-83
2024/04/25 14:40:32;;;;;;;9.23;5.63;;;;;;;;;;5506238;25;20269;-83
2024/04/25 14:43:03;;;;;;;7.90;5.68;;;;;;;;;;5496081;25;20226;-84
2024/04/25 14:45:32;;;;;;;8.60;5.72;;;;;;;;;;5523870;26;20269;-85
2024/04/25 14:48:01;;;;;;;9.00;5.53;;;;;;;;;;5524377;26;20230;-83
2024/04/25 14:50:30;;;;;;;9.02;5.68;;;;;;;;;;5523588;25;20234;-83
2024/04/25 14:52:59;;;;;;;9.95;5.85;;;;;;;;;;5524715;26;20273;-83
2024/04/25 14:55:27;;;;;;;8.95;6.00;;;;;;;;;;5524991;26;20699;-84